createdAt,value
2018-09-03T00:00:47.375Z,40.11
2018-09-03T00:01:47.348Z,40.31
2018-09-03T00:02:47.310Z,39.62
2018-09-03T00:03:47.281Z,39.04
2018-09-03T00:04:47.247Z,39.24
2018-09-03T00:05:47.225Z,39.34
2018-09-03T00:06:47.201Z,39.04
2018-09-03T00:07:47.157Z,38.75
2018-09-03T00:08:47.127Z,38.95
2018-09-03T00:09:47.089Z,39.04
2018-09-03T00:10:47.073Z,39.04
2018-09-03T00:11:47.037Z,39.04
2018-09-03T00:12:47.008Z,38.95
2018-09-03T00:13:46.973Z,38.46
2018-09-03T00:14:46.935Z,38.95
2018-09-03T00:15:46.919Z,38.75
2018-09-03T00:16:46.900Z,38.46
2018-09-03T00:17:47.206Z,38.17
2018-09-03T00:18:46.833Z,38.07
2018-09-03T00:19:46.800Z,37.68
2018-09-03T00:20:46.763Z,37.10
2018-09-03T00:21:46.732Z,37.39
2018-09-03T00:22:46.704Z,37.20
2018-09-03T00:23:46.864Z,37.30
2018-09-03T00:24:46.644Z,37.30
2018-09-03T00:25:46.622Z,37.01
2018-09-03T00:26:46.778Z,37.20
2018-09-03T00:27:46.566Z,36.91
2018-09-03T00:28:46.521Z,36.71
2018-09-03T00:29:46.482Z,37.01
2018-09-03T00:30:46.465Z,37.49
2018-09-03T00:31:46.435Z,38.09
2018-09-03T00:32:46.403Z,38.87
2018-09-03T00:33:46.575Z,39.04
2018-09-03T00:34:46.493Z,40.21
2018-09-03T00:35:46.314Z,40.11
2018-09-03T00:36:46.469Z,40.31
2018-09-03T00:37:46.246Z,40.69
2018-09-03T00:38:46.219Z,40.50
2018-09-03T00:39:46.186Z,41.18
2018-09-03T00:40:46.453Z,41.36
2018-09-03T00:41:46.132Z,41.16
2018-09-03T00:42:46.147Z,41.36
2018-09-03T00:43:46.063Z,41.06
2018-09-03T00:44:46.046Z,41.36
2018-09-03T00:45:46.006Z,41.26
2018-09-03T00:46:46.171Z,41.33
2018-09-03T00:47:45.939Z,41.26
2018-09-03T00:48:45.918Z,40.29
2018-09-03T00:49:45.887Z,40.00
2018-09-03T00:50:45.856Z,39.88
2018-09-03T00:51:45.828Z,40.58
2018-09-03T00:53:46.007Z,40.09
2018-09-03T00:54:45.935Z,38.91
2018-09-03T00:55:45.709Z,39.32
2018-09-03T00:56:45.676Z,39.03
2018-09-03T00:57:45.636Z,38.91
2018-09-03T00:58:45.602Z,39.20
2018-09-03T00:59:45.932Z,40.26
2018-09-03T01:00:45.543Z,39.88
2018-09-03T01:01:45.530Z,39.29
2018-09-03T01:02:45.486Z,38.71
2018-09-03T01:03:45.461Z,39.01
2018-09-03T01:04:45.433Z,39.11
2018-09-03T01:05:45.389Z,39.29
2018-09-03T01:06:45.371Z,39.11
2018-09-03T01:07:45.334Z,39.11
2018-09-03T01:08:45.310Z,38.52
2018-09-03T01:09:45.267Z,38.62
2018-09-03T01:11:45.214Z,39.78
2018-09-03T01:12:45.192Z,38.91
2018-09-03T01:13:45.151Z,38.81
2018-09-03T01:14:45.125Z,39.39
2018-09-03T01:15:45.084Z,40.08
2018-09-03T01:16:45.069Z,39.78
2018-09-03T01:17:45.039Z,39.98
2018-09-03T01:18:45.041Z,40.17
2018-09-03T01:19:44.964Z,40.46
2018-09-03T01:20:44.936Z,41.33
2018-09-03T01:21:44.920Z,41.14
2018-09-03T01:22:44.870Z,41.80
2018-09-03T01:23:44.852Z,41.70
2018-09-03T01:24:44.818Z,41.51
2018-09-03T01:25:44.801Z,41.70
2018-09-03T01:26:44.748Z,41.22
2018-09-03T01:27:44.718Z,41.22
2018-09-03T01:28:44.691Z,41.12
2018-09-03T01:29:44.674Z,41.22
2018-09-03T01:30:44.646Z,41.22
2018-09-03T01:31:44.600Z,41.02
2018-09-03T01:32:44.719Z,41.12
2018-09-03T01:33:44.548Z,41.12
2018-09-03T01:34:44.498Z,41.41
2018-09-03T01:35:44.490Z,41.22
2018-09-03T01:36:44.436Z,41.22
2018-09-03T01:37:44.408Z,41.02
2018-09-03T01:38:44.386Z,41.12
2018-09-03T01:39:44.358Z,41.31
2018-09-03T01:40:44.322Z,41.22
2018-09-03T01:41:44.283Z,41.22
2018-09-03T01:42:44.263Z,41.22
2018-09-03T01:43:44.245Z,41.41
2018-09-03T01:44:44.208Z,41.31
2018-09-03T01:45:44.167Z,41.22
2018-09-03T01:46:44.144Z,41.22
2018-09-03T01:47:44.106Z,40.34
2018-09-03T01:48:44.073Z,40.42
2018-09-03T01:49:44.045Z,40.33
2018-09-03T01:50:44.019Z,40.15
2018-09-03T01:51:43.981Z,39.95
2018-09-03T01:52:43.950Z,40.05
2018-09-03T01:53:44.076Z,40.05
2018-09-03T01:54:43.896Z,40.25
2018-09-03T01:55:43.880Z,39.76
2018-09-03T01:56:43.821Z,39.76
2018-09-03T01:57:43.813Z,39.94
2018-09-03T01:58:43.776Z,40.03
2018-09-03T01:59:44.090Z,39.95
2018-09-03T02:00:43.720Z,39.76
2018-09-03T02:01:43.668Z,39.94
2018-09-03T02:02:43.641Z,40.33
2018-09-03T02:03:43.616Z,40.05
2018-09-03T02:04:43.597Z,40.15
2018-09-03T02:05:43.752Z,40.15
2018-09-03T02:06:43.518Z,39.94
2018-09-03T02:07:43.495Z,40.03
2018-09-03T02:08:43.454Z,39.94
2018-09-03T02:09:43.436Z,39.74
2018-09-03T02:10:43.404Z,39.55
2018-09-03T02:11:43.384Z,39.94
2018-09-03T02:12:43.339Z,39.94
2018-09-03T02:13:43.296Z,39.65
2018-09-03T02:14:43.268Z,39.84
2018-09-03T02:15:43.245Z,39.74
2018-09-03T02:16:43.213Z,39.84
2018-09-03T02:17:43.182Z,39.94
2018-09-03T02:18:43.173Z,39.74
2018-09-03T02:19:43.120Z,39.74
2018-09-03T02:20:43.094Z,40.03
2018-09-03T02:21:43.151Z,39.65
2018-09-03T02:22:43.031Z,39.84
2018-09-03T02:23:43.017Z,39.74
2018-09-03T02:24:42.975Z,40.13
2018-09-03T02:25:42.932Z,41.20
2018-09-03T02:26:42.922Z,41.68
2018-09-03T02:27:42.916Z,41.58
2018-09-03T02:28:42.846Z,41.39
2018-09-03T02:29:42.810Z,41.78
2018-09-03T02:30:42.772Z,41.88
2018-09-03T02:31:42.752Z,42.26
2018-09-03T02:32:42.730Z,42.92
2018-09-03T02:33:42.686Z,42.72
2018-09-03T02:34:42.652Z,43.02
2018-09-03T02:35:42.623Z,43.02
2018-09-03T02:36:42.820Z,43.02
2018-09-03T02:37:42.607Z,43.21
2018-09-03T02:38:42.536Z,43.02
2018-09-03T02:39:42.509Z,43.12
2018-09-03T02:40:42.475Z,42.13
2018-09-03T02:41:42.443Z,42.24
2018-09-03T02:42:42.400Z,41.76
2018-09-03T02:43:42.384Z,41.64
2018-09-03T02:44:42.350Z,41.56
2018-09-03T02:45:42.303Z,41.27
2018-09-03T02:46:42.284Z,41.76
2018-09-03T02:47:42.251Z,41.64
2018-09-03T02:48:42.212Z,41.27
2018-09-03T02:49:42.183Z,41.45
2018-09-03T02:50:42.159Z,41.55
2018-09-03T02:51:42.127Z,41.47
2018-09-03T02:52:42.093Z,41.37
2018-09-03T02:53:42.075Z,41.27
2018-09-03T02:54:42.034Z,40.99
2018-09-03T02:55:41.996Z,41.27
2018-09-03T02:56:41.961Z,42.14
2018-09-03T02:57:42.242Z,42.51
2018-09-03T02:58:41.912Z,43.58
2018-09-03T02:59:41.875Z,44.45
2018-09-03T03:00:41.865Z,45.61
2018-09-03T03:01:41.805Z,45.61
2018-09-03T03:02:41.852Z,46.19
2018-09-03T03:03:41.757Z,46.19
2018-09-03T03:04:41.719Z,46.19
2018-09-03T03:05:41.681Z,46.26
2018-09-03T03:06:41.655Z,46.58
2018-09-03T03:07:41.627Z,46.46
2018-09-03T03:08:41.602Z,46.36
2018-09-03T03:09:41.561Z,46.17
2018-09-03T03:10:41.533Z,46.08
2018-09-03T03:11:41.573Z,45.59
2018-09-03T03:12:41.467Z,45.40
2018-09-03T03:13:41.501Z,45.68
2018-09-03T03:14:41.432Z,45.20
2018-09-03T03:15:41.383Z,45.59
2018-09-03T03:16:41.336Z,45.30
2018-09-03T03:17:41.306Z,45.30
2018-09-03T03:18:41.404Z,45.49
2018-09-03T03:19:41.259Z,45.78
2018-09-03T03:20:41.227Z,45.59
2018-09-03T03:21:41.185Z,45.59
2018-09-03T03:22:41.160Z,45.49
2018-09-03T03:23:41.113Z,45.49
2018-09-03T03:24:41.095Z,45.30
2018-09-03T03:25:41.062Z,45.10
2018-09-03T03:26:41.032Z,44.62
2018-09-03T03:27:41.005Z,44.62
2018-09-03T03:28:40.980Z,44.91
2018-09-03T03:29:40.971Z,45.10
2018-09-03T03:30:40.897Z,45.08
2018-09-03T03:31:40.886Z,45.28
2018-09-03T03:32:40.832Z,45.28
2018-09-03T03:33:40.804Z,45.47
2018-09-03T03:34:40.767Z,45.37
2018-09-03T03:35:40.745Z,45.20
2018-09-03T03:36:40.723Z,45.18
2018-09-03T03:37:40.880Z,45.08
2018-09-03T03:38:40.643Z,45.08
2018-09-03T03:39:40.624Z,45.18
2018-09-03T03:40:40.587Z,45.37
2018-09-03T03:41:40.575Z,45.59
2018-09-03T03:42:40.526Z,45.57
2018-09-03T03:43:40.493Z,45.59
2018-09-03T03:44:40.451Z,45.59
2018-09-03T03:45:40.434Z,46.05
2018-09-03T03:46:40.397Z,45.88
2018-09-03T03:47:40.369Z,45.95
2018-09-03T03:48:40.390Z,46.05
2018-09-03T03:49:40.298Z,46.34
2018-09-03T03:50:40.264Z,46.05
2018-09-03T03:51:40.246Z,45.66
2018-09-03T03:52:40.209Z,45.57
2018-09-03T03:53:40.167Z,45.47
2018-09-03T03:54:40.150Z,45.18
2018-09-03T03:55:40.107Z,45.18
2018-09-03T03:56:40.080Z,45.57
2018-09-03T03:57:40.057Z,45.95
2018-09-03T03:58:40.037Z,46.53
2018-09-03T03:59:40.148Z,47.00
2018-09-03T04:00:39.957Z,46.90
2018-09-03T04:01:39.922Z,46.80
2018-09-03T04:02:39.906Z,47.09
2018-09-03T04:03:39.856Z,47.21
2018-09-03T04:04:39.828Z,47.31
2018-09-03T04:05:39.997Z,46.92
2018-09-03T04:06:39.758Z,47.11
2018-09-03T04:07:39.724Z,47.50
2018-09-03T04:08:39.702Z,47.21
2018-09-03T04:09:39.673Z,47.02
2018-09-03T04:10:39.652Z,47.09
2018-09-03T04:11:39.608Z,47.19
2018-09-03T04:12:39.576Z,46.80
2018-09-03T04:13:39.549Z,47.11
2018-09-03T04:14:39.512Z,46.73
2018-09-03T04:16:39.450Z,48.08
2018-09-03T04:17:39.406Z,48.18
2018-09-03T04:18:39.385Z,47.60
2018-09-03T04:19:39.358Z,47.50
2018-09-03T04:20:39.329Z,47.31
2018-09-03T04:21:39.382Z,47.21
2018-09-03T04:22:39.254Z,47.77
2018-09-03T04:23:39.228Z,48.27
2018-09-03T04:24:39.201Z,48.27
2018-09-03T04:25:39.155Z,48.95
2018-09-03T04:26:39.122Z,48.86
2018-09-03T04:27:39.092Z,48.76
2018-09-03T04:28:39.075Z,49.02
2018-09-03T04:29:39.036Z,49.32
2018-09-03T04:30:39.006Z,49.32
2018-09-03T04:31:38.978Z,49.90
2018-09-03T04:32:38.937Z,50.28
2018-09-03T04:33:38.905Z,49.99
2018-09-03T04:34:38.887Z,50.38
2018-09-03T04:35:38.846Z,50.38
2018-09-03T04:36:38.818Z,50.38
2018-09-03T04:37:38.783Z,50.26
2018-09-03T04:38:38.805Z,50.38
2018-09-03T04:39:38.757Z,50.28
2018-09-03T04:40:38.688Z,50.65
2018-09-03T04:41:38.653Z,50.57
2018-09-03T04:42:38.629Z,50.65
2018-09-03T04:43:38.753Z,50.93
2018-09-03T04:44:38.575Z,51.61
2018-09-03T04:45:38.526Z,51.51
2018-09-03T04:46:38.491Z,50.93
2018-09-03T04:47:38.472Z,51.03
2018-09-03T04:48:38.448Z,51.51
2018-09-03T04:49:38.404Z,50.84
2018-09-03T04:50:38.364Z,51.13
2018-09-03T04:51:38.341Z,51.32
2018-09-03T04:52:38.354Z,51.42
2018-09-03T04:53:38.279Z,50.74
2018-09-03T04:54:38.287Z,50.81
2018-09-03T04:55:38.208Z,51.49
2018-09-03T04:56:38.173Z,51.49
2018-09-03T04:57:38.140Z,51.03
2018-09-03T04:58:38.113Z,51.10
2018-09-03T04:59:38.277Z,51.10
2018-09-03T05:00:38.038Z,51.20
2018-09-03T05:01:38.063Z,51.01
2018-09-03T05:02:37.985Z,51.59
2018-09-03T05:03:37.949Z,51.10
2018-09-03T05:04:37.915Z,50.91
2018-09-03T05:05:37.886Z,51.01
2018-09-03T05:06:37.856Z,51.29
2018-09-03T05:07:37.822Z,51.29
2018-09-03T05:08:37.801Z,51.59
2018-09-03T05:09:37.756Z,51.68
2018-09-03T05:10:37.725Z,51.68
2018-09-03T05:11:37.709Z,51.87
2018-09-03T05:12:37.663Z,52.07
2018-09-03T05:13:37.629Z,52.26
2018-09-03T05:14:37.597Z,51.78
2018-09-03T05:15:37.568Z,52.07
2018-09-03T05:16:37.530Z,52.17
2018-09-03T05:17:37.500Z,52.55
2018-09-03T05:18:37.468Z,52.36
2018-09-03T05:19:37.426Z,52.75
2018-09-03T05:20:37.404Z,52.55
2018-09-03T05:21:37.622Z,52.62
2018-09-03T05:22:37.341Z,52.14
2018-09-03T05:23:37.313Z,52.33
2018-09-03T05:24:37.284Z,52.53
2018-09-03T05:25:37.252Z,52.72
2018-09-03T05:26:37.216Z,52.91
2018-09-03T05:27:37.185Z,53.20
2018-09-03T05:28:37.154Z,53.20
2018-09-03T05:29:37.119Z,52.91
2018-09-03T05:30:37.087Z,52.53
2018-09-03T05:31:37.058Z,52.62
2018-09-03T05:32:37.027Z,52.62
2018-09-03T05:33:36.989Z,52.72
2018-09-03T05:34:36.950Z,53.30
2018-09-03T05:35:36.929Z,53.30
2018-09-03T05:36:36.895Z,53.59
2018-09-03T05:37:36.860Z,53.59
2018-09-03T05:38:36.826Z,53.69
2018-09-03T05:39:36.794Z,53.59
2018-09-03T05:40:36.762Z,53.39
2018-09-03T05:41:36.724Z,53.69
2018-09-03T05:42:36.707Z,53.30
2018-09-03T05:43:36.863Z,53.11
2018-09-03T05:44:36.625Z,53.01
2018-09-03T05:45:36.602Z,52.72
2018-09-03T05:46:36.563Z,53.01
2018-09-03T05:47:36.540Z,52.33
2018-09-03T05:48:36.766Z,52.43
2018-09-03T05:49:36.463Z,52.53
2018-09-03T05:50:36.439Z,52.14
2018-09-03T05:51:36.409Z,51.95
2018-09-03T05:52:36.376Z,51.95
2018-09-03T05:53:36.340Z,52.04
2018-09-03T05:54:36.314Z,52.14
2018-09-03T05:55:36.278Z,51.75
2018-09-03T05:56:36.246Z,52.43
2018-09-03T05:57:36.223Z,53.03
2018-09-03T05:58:36.188Z,53.33
2018-09-03T05:59:36.292Z,53.11
2018-09-03T06:00:36.113Z,53.49
2018-09-03T06:01:36.086Z,53.59
2018-09-03T06:02:36.056Z,53.69
2018-09-03T06:03:36.011Z,53.97
2018-09-03T06:04:35.976Z,53.78
2018-09-03T06:05:35.950Z,53.88
2018-09-03T06:06:35.914Z,53.88
2018-09-03T06:07:35.909Z,54.36
2018-09-03T06:08:35.855Z,54.46
2018-09-03T06:09:35.816Z,54.27
2018-09-03T06:10:35.880Z,54.27
2018-09-03T06:11:35.759Z,54.75
2018-09-03T06:12:35.728Z,54.65
2018-09-03T06:13:35.694Z,54.46
2018-09-03T06:14:35.654Z,54.36
2018-09-03T06:15:35.634Z,54.46
2018-09-03T06:16:35.739Z,54.46
2018-09-03T06:17:35.558Z,54.46
2018-09-03T06:18:35.590Z,54.65
2018-09-03T06:19:35.496Z,55.33
2018-09-03T06:20:35.466Z,55.23
2018-09-03T06:21:35.426Z,55.04
2018-09-03T06:22:35.402Z,55.23
2018-09-03T06:23:35.366Z,55.40
2018-09-03T06:24:35.343Z,55.20
2018-09-03T06:25:35.298Z,55.10
2018-09-03T06:26:35.322Z,55.68
2018-09-03T06:27:35.237Z,55.30
2018-09-03T06:28:35.202Z,55.10
2018-09-03T06:29:35.174Z,55.49
2018-09-03T06:30:35.144Z,55.40
2018-09-03T06:31:35.107Z,55.40
2018-09-03T06:32:35.279Z,55.01
2018-09-03T06:33:35.033Z,55.20
2018-09-03T06:34:35.048Z,55.68
2018-09-03T06:35:34.975Z,55.78
2018-09-03T06:36:34.950Z,56.16
2018-09-03T06:37:34.915Z,55.88
2018-09-03T06:38:34.985Z,55.78
2018-09-03T06:39:34.851Z,56.36
2018-09-03T06:40:34.801Z,56.56
2018-09-03T06:41:34.792Z,56.65
2018-09-03T06:42:34.780Z,55.68
2018-09-03T06:43:34.812Z,55.59
2018-09-03T06:44:34.701Z,54.72
2018-09-03T06:45:34.652Z,54.55
2018-09-03T06:46:34.615Z,54.53
2018-09-03T06:47:34.599Z,55.20
2018-09-03T06:48:34.563Z,55.62
2018-09-03T06:49:34.923Z,55.52
2018-09-03T06:50:34.498Z,55.42
2018-09-03T06:51:34.451Z,55.62
2018-09-03T06:52:34.452Z,54.55
2018-09-03T06:53:34.424Z,53.78
2018-09-03T06:54:34.355Z,52.53
2018-09-03T06:55:34.316Z,51.95
2018-09-03T06:56:34.364Z,51.17
2018-09-03T06:57:34.264Z,50.89
2018-09-03T06:58:34.247Z,50.89
2018-09-03T06:59:34.213Z,50.79
2018-09-03T07:00:34.367Z,51.34
2018-09-03T07:01:34.132Z,51.07
2018-09-03T07:02:34.096Z,52.33
2018-09-03T07:03:34.064Z,53.39
2018-09-03T07:04:34.033Z,54.46
2018-09-03T07:05:34.006Z,54.36
2018-09-03T07:06:34.264Z,55.13
2018-09-03T07:07:33.927Z,55.04
2018-09-03T07:08:33.903Z,55.42
2018-09-03T07:09:33.867Z,55.04
2018-09-03T07:10:33.838Z,55.62
2018-09-03T07:11:33.800Z,55.52
2018-09-03T07:12:33.863Z,55.23
2018-09-03T07:13:33.745Z,55.52
2018-09-03T07:14:33.711Z,55.90
2018-09-03T07:15:33.668Z,56.00
2018-09-03T07:16:33.644Z,55.81
2018-09-03T07:17:33.613Z,56.20
2018-09-03T07:18:33.647Z,56.10
2018-09-03T07:19:33.536Z,56.20
2018-09-03T07:20:33.511Z,55.52
2018-09-03T07:21:33.476Z,56.00
2018-09-03T07:22:33.448Z,55.90
2018-09-03T07:23:33.404Z,55.23
2018-09-03T07:24:33.371Z,56.29
2018-09-03T07:25:33.347Z,56.00
2018-09-03T07:26:33.312Z,55.33
2018-09-03T07:27:33.280Z,55.71
2018-09-03T07:28:33.252Z,55.33
2018-09-03T07:29:33.210Z,55.59
2018-09-03T07:30:33.247Z,55.49
2018-09-03T07:31:33.154Z,55.78
2018-09-03T07:32:33.119Z,55.98
2018-09-03T07:33:33.097Z,56.26
2018-09-03T07:34:33.061Z,56.26
2018-09-03T07:35:33.065Z,56.52
2018-09-03T07:36:32.994Z,56.81
2018-09-03T07:37:32.963Z,57.04
2018-09-03T07:38:32.929Z,57.01
2018-09-03T07:39:32.890Z,56.43
2018-09-03T07:40:32.869Z,56.65
2018-09-03T07:41:32.838Z,55.78
2018-09-03T07:42:32.791Z,55.98
2018-09-03T07:43:32.761Z,55.98
2018-09-03T07:44:32.733Z,56.16
2018-09-03T07:45:32.702Z,55.68
2018-09-03T07:46:32.664Z,55.78
2018-09-03T07:47:32.643Z,55.59
2018-09-03T07:48:32.607Z,55.20
2018-09-03T07:49:32.573Z,55.20
2018-09-03T07:50:32.547Z,55.40
2018-09-03T07:51:32.506Z,55.59
2018-09-03T07:52:32.471Z,55.49
2018-09-03T07:53:32.453Z,55.40
2018-09-03T07:54:32.400Z,55.98
2018-09-03T07:55:32.371Z,56.07
2018-09-03T07:56:32.347Z,56.16
2018-09-03T07:57:32.306Z,55.59
2018-09-03T07:58:32.275Z,56.26
2018-09-03T07:59:32.242Z,56.46
2018-09-03T08:00:32.305Z,56.84
2018-09-03T08:01:32.183Z,56.46
2018-09-03T08:02:32.171Z,56.65
2018-09-03T08:03:32.111Z,56.36
2018-09-03T08:04:32.086Z,57.23
2018-09-03T08:05:32.051Z,56.94
2018-09-03T08:06:32.117Z,57.04
2018-09-03T08:07:31.981Z,56.74
2018-09-03T08:08:31.945Z,57.52
2018-09-03T08:09:31.916Z,57.04
2018-09-03T08:10:31.888Z,57.23
2018-09-03T08:11:31.856Z,57.32
2018-09-03T08:12:31.823Z,57.71
2018-09-03T08:13:31.784Z,57.62
2018-09-03T08:14:31.758Z,57.04
2018-09-03T08:15:31.728Z,56.94
2018-09-03T08:16:31.689Z,56.94
2018-09-03T08:17:31.665Z,57.04
2018-09-03T08:18:31.647Z,56.94
2018-09-03T08:19:31.592Z,57.04
2018-09-03T08:20:31.550Z,57.42
2018-09-03T08:21:31.518Z,57.42
2018-09-03T08:22:31.492Z,56.74
2018-09-03T08:23:31.460Z,56.94
2018-09-03T08:24:31.426Z,56.74
2018-09-03T08:25:31.386Z,57.23
2018-09-03T08:26:31.365Z,57.52
2018-09-03T08:27:31.330Z,57.14
2018-09-03T08:28:31.296Z,56.94
2018-09-03T08:29:31.256Z,57.49
2018-09-03T08:30:31.233Z,57.01
2018-09-03T08:31:31.208Z,57.29
2018-09-03T08:32:31.165Z,57.49
2018-09-03T08:33:31.325Z,57.59
2018-09-03T08:34:31.133Z,57.78
2018-09-03T08:35:31.092Z,57.65
2018-09-03T08:36:31.034Z,58.04
2018-09-03T08:37:30.998Z,57.65
2018-09-03T08:38:30.962Z,57.97
2018-09-03T08:39:31.048Z,57.65
2018-09-03T08:40:30.922Z,57.59
2018-09-03T08:41:30.875Z,58.04
2018-09-03T08:42:30.837Z,58.07
2018-09-03T08:43:30.808Z,57.59
2018-09-03T08:44:30.775Z,57.87
2018-09-03T08:45:30.736Z,57.87
2018-09-03T08:46:30.709Z,58.45
2018-09-03T08:47:30.673Z,57.97
2018-09-03T08:48:30.689Z,58.36
2018-09-03T08:49:30.611Z,58.26
2018-09-03T08:50:30.872Z,58.55
2018-09-03T08:51:30.545Z,58.65
2018-09-03T08:52:30.504Z,59.23
2018-09-03T08:53:30.475Z,58.91
2018-09-03T08:54:30.445Z,59.48
2018-09-03T08:55:30.416Z,59.20
2018-09-03T08:57:30.353Z,59.78
2018-09-03T08:58:30.308Z,59.65
2018-09-03T08:59:30.281Z,59.75
2018-09-03T09:00:30.259Z,60.23
2018-09-03T09:01:30.218Z,60.06
2018-09-03T09:02:30.175Z,60.32
2018-09-03T09:03:30.157Z,59.87
2018-09-03T09:04:30.124Z,59.78
2018-09-03T09:05:30.081Z,59.97
2018-09-03T09:06:30.048Z,59.87
2018-09-03T09:07:30.028Z,59.78
2018-09-03T09:08:29.976Z,60.13
2018-09-03T09:09:29.951Z,59.84
2018-09-03T09:10:29.918Z,59.84
2018-09-03T09:11:29.888Z,59.48
2018-09-03T09:12:29.851Z,59.75
2018-09-03T09:13:29.819Z,60.16
2018-09-03T09:14:29.786Z,59.78
2018-09-03T09:15:29.748Z,59.20
2018-09-03T09:16:29.719Z,59.48
2018-09-03T09:17:29.690Z,59.07
2018-09-03T09:18:29.647Z,59.17
2018-09-03T09:19:29.623Z,59.75
2018-09-03T09:20:29.649Z,59.84
2018-09-03T09:21:29.569Z,59.94
2018-09-03T09:22:29.627Z,59.94
2018-09-03T09:23:29.490Z,60.13
2018-09-03T09:24:29.470Z,60.13
2018-09-03T09:25:29.431Z,60.03
2018-09-03T09:26:29.397Z,59.84
2018-09-03T09:27:29.351Z,60.13
2018-09-03T09:28:29.323Z,60.03
2018-09-03T09:29:29.294Z,60.23
2018-09-03T09:30:29.249Z,61.10
2018-09-03T09:31:29.239Z,60.80
2018-09-03T09:32:29.183Z,60.61
2018-09-03T09:33:29.374Z,60.71
2018-09-03T09:34:29.133Z,60.80
2018-09-03T09:35:29.098Z,60.80
2018-09-03T09:36:29.059Z,60.61
2018-09-03T09:37:29.018Z,60.42
2018-09-03T09:38:29.005Z,60.23
2018-09-03T09:39:28.964Z,60.26
2018-09-03T09:40:28.923Z,60.74
2018-09-03T09:41:28.909Z,60.83
2018-09-03T09:42:28.861Z,60.16
2018-09-03T09:43:28.820Z,60.26
2018-09-03T09:45:28.769Z,60.26
2018-09-03T09:46:28.717Z,60.16
2018-09-03T09:47:28.688Z,60.16
2018-09-03T09:48:28.656Z,60.93
2018-09-03T09:49:28.631Z,60.64
2018-09-03T09:50:28.596Z,60.74
2018-09-03T09:51:28.562Z,61.03
2018-09-03T09:52:28.535Z,60.83
2018-09-03T09:53:28.495Z,60.93
2018-09-03T09:54:28.483Z,60.83
2018-09-03T09:55:28.440Z,60.93
2018-09-03T09:56:28.397Z,60.83
2018-09-03T09:57:28.376Z,60.96
2018-09-03T09:58:28.340Z,60.83
2018-09-03T09:59:28.306Z,60.96
2018-09-03T10:00:28.271Z,61.44
2018-09-03T10:01:28.340Z,61.22
2018-09-03T10:02:28.207Z,61.25
2018-09-03T10:03:28.173Z,61.25
2018-09-03T10:04:28.179Z,61.06
2018-09-03T10:05:28.101Z,61.35
2018-09-03T10:06:28.066Z,61.64
2018-09-03T10:07:28.347Z,61.93
2018-09-03T10:08:28.003Z,61.35
2018-09-03T10:09:27.983Z,61.35
2018-09-03T10:10:27.943Z,61.38
2018-09-03T10:11:27.912Z,61.67
2018-09-03T10:12:27.880Z,61.47
2018-09-03T10:13:27.846Z,61.19
2018-09-03T10:14:27.804Z,61.67
2018-09-03T10:15:27.790Z,61.38
2018-09-03T10:16:27.737Z,60.89
2018-09-03T10:17:27.764Z,60.64
2018-09-03T10:18:27.678Z,60.06
2018-09-03T10:19:27.644Z,59.96
2018-09-03T10:20:27.603Z,59.28
2018-09-03T10:21:27.578Z,59.09
2018-09-03T10:22:27.547Z,58.32
2018-09-03T10:23:27.509Z,58.70
2018-09-03T10:24:27.681Z,58.70
2018-09-03T10:25:27.443Z,58.73
2018-09-03T10:26:27.426Z,58.54
2018-09-03T10:27:27.379Z,58.64
2018-09-03T10:28:27.354Z,58.25
2018-09-03T10:29:27.319Z,58.06
2018-09-03T10:30:27.395Z,57.96
2018-09-03T10:31:27.251Z,57.96
2018-09-03T10:32:27.226Z,57.70
2018-09-03T10:33:27.193Z,58.09
2018-09-03T10:34:27.162Z,58.18
2018-09-03T10:35:27.128Z,58.37
2018-09-03T10:36:27.098Z,58.67
2018-09-03T10:37:27.058Z,58.37
2018-09-03T10:38:27.033Z,58.67
2018-09-03T10:39:27.003Z,57.99
2018-09-03T10:40:26.959Z,57.99
2018-09-03T10:41:26.936Z,57.79
2018-09-03T10:42:26.898Z,57.82
2018-09-03T10:43:26.927Z,57.92
2018-09-03T10:44:26.854Z,58.02
2018-09-03T10:45:26.820Z,58.31
2018-09-03T10:46:26.792Z,57.73
2018-09-03T10:47:26.764Z,57.54
2018-09-03T10:48:26.723Z,57.73
2018-09-03T10:49:26.687Z,57.46
2018-09-03T10:50:26.657Z,57.66
2018-09-03T10:51:26.618Z,58.24
2018-09-03T10:52:26.596Z,57.95
2018-09-03T10:53:26.606Z,57.86
2018-09-03T10:54:26.518Z,57.37
2018-09-03T10:55:26.499Z,57.18
2018-09-03T10:56:26.469Z,57.08
2018-09-03T10:57:26.435Z,57.46
2018-09-03T10:58:26.391Z,57.18
2018-09-03T10:59:26.373Z,57.28
2018-09-03T11:00:26.340Z,57.08
2018-09-03T11:01:26.311Z,56.98
2018-09-03T11:02:26.281Z,57.01
2018-09-03T11:03:26.344Z,57.20
2018-09-03T11:04:26.254Z,57.30
2018-09-03T11:05:26.184Z,57.40
2018-09-03T11:06:26.150Z,57.71
2018-09-03T11:07:26.116Z,57.81
2018-09-03T11:08:26.086Z,57.71
2018-09-03T11:09:26.059Z,57.91
2018-09-03T11:10:26.029Z,56.94
2018-09-03T11:11:25.986Z,57.14
2018-09-03T11:12:25.979Z,57.23
2018-09-03T11:13:25.926Z,57.75
2018-09-03T11:14:25.928Z,57.55
2018-09-03T11:15:25.881Z,57.43
2018-09-03T11:16:25.845Z,56.97
2018-09-03T11:17:25.831Z,57.17
2018-09-03T11:18:25.785Z,57.07
2018-09-03T11:19:25.742Z,57.17
2018-09-03T11:20:25.726Z,56.87
2018-09-03T11:21:25.800Z,57.00
2018-09-03T11:22:25.718Z,57.00
2018-09-03T11:23:25.625Z,56.81
2018-09-03T11:24:25.594Z,56.81
2018-09-03T11:25:25.673Z,56.32
2018-09-03T11:26:25.551Z,56.51
2018-09-03T11:27:25.512Z,56.51
2018-09-03T11:28:25.475Z,56.15
2018-09-03T11:29:25.483Z,56.15
2018-09-03T11:30:25.421Z,56.05
2018-09-03T11:31:25.386Z,55.87
2018-09-03T11:32:25.351Z,55.87
2018-09-03T11:33:25.327Z,55.87
2018-09-03T11:34:25.297Z,55.47
2018-09-03T11:35:25.253Z,55.87
2018-09-03T11:36:25.244Z,55.57
2018-09-03T11:37:25.194Z,55.47
2018-09-03T11:38:25.164Z,55.77
2018-09-03T11:39:25.148Z,55.69
2018-09-03T11:40:25.102Z,55.21
2018-09-03T11:41:25.080Z,55.60
2018-09-03T11:42:25.058Z,55.60
2018-09-03T11:43:25.030Z,55.02
2018-09-03T11:44:24.991Z,54.82
2018-09-03T11:45:24.964Z,54.72
2018-09-03T11:46:24.926Z,54.94
2018-09-03T11:47:24.906Z,54.82
2018-09-03T11:48:24.865Z,54.66
2018-09-03T11:49:24.850Z,54.75
2018-09-03T11:50:24.813Z,54.27
2018-09-03T11:51:24.777Z,54.07
2018-09-03T11:52:24.762Z,54.07
2018-09-03T11:53:24.720Z,53.78
2018-09-03T11:54:24.705Z,53.88
2018-09-03T11:55:24.656Z,54.17
2018-09-03T11:56:24.621Z,54.10
2018-09-03T11:57:24.951Z,53.88
2018-09-03T11:58:24.571Z,53.61
2018-09-03T11:59:24.531Z,53.61
2018-09-03T12:00:24.518Z,53.42
2018-09-03T12:01:24.480Z,53.52
2018-09-03T12:02:24.444Z,52.67
2018-09-03T12:03:24.425Z,52.74
2018-09-03T12:04:24.391Z,52.28
2018-09-03T12:05:24.383Z,52.19
2018-09-03T12:06:24.332Z,51.60
2018-09-03T12:07:24.307Z,51.21
2018-09-03T12:08:24.425Z,51.11
2018-09-03T12:09:24.246Z,51.43
2018-09-03T12:10:24.230Z,51.43
2018-09-03T12:11:24.193Z,51.33
2018-09-03T12:12:24.164Z,50.65
2018-09-03T12:13:24.132Z,50.46
2018-09-03T12:14:24.454Z,50.46
2018-09-03T12:15:24.073Z,50.46
2018-09-03T12:16:24.033Z,50.48
2018-09-03T12:17:24.012Z,50.58
2018-09-03T12:18:23.982Z,50.38
2018-09-03T12:19:23.946Z,50.48
2018-09-03T12:20:24.076Z,49.99
2018-09-03T12:21:23.886Z,49.22
2018-09-03T12:22:23.864Z,49.02
2018-09-03T12:23:23.842Z,48.63
2018-09-03T12:24:23.808Z,48.27
2018-09-03T12:25:23.772Z,48.56
2018-09-03T12:26:23.759Z,48.17
2018-09-03T12:27:23.724Z,48.36
2018-09-03T12:28:23.704Z,47.39
2018-09-03T12:29:23.663Z,47.39
2018-09-03T12:30:23.634Z,47.30
2018-09-03T12:31:23.805Z,47.03
2018-09-03T12:32:23.629Z,46.93
2018-09-03T12:33:23.567Z,46.54
2018-09-03T12:34:23.516Z,46.34
2018-09-03T12:35:23.499Z,46.34
2018-09-03T12:36:23.460Z,45.86
2018-09-03T12:37:23.441Z,45.76
2018-09-03T12:38:23.420Z,45.29
2018-09-03T12:39:23.395Z,45.57
2018-09-03T12:40:23.362Z,45.20
2018-09-03T12:41:23.334Z,45.49
2018-09-03T12:42:23.303Z,45.49
2018-09-03T12:43:23.286Z,45.39
2018-09-03T12:44:23.251Z,45.10
2018-09-03T12:45:23.215Z,44.90
2018-09-03T12:46:23.254Z,44.62
2018-09-03T12:47:23.170Z,44.83
2018-09-03T12:48:23.207Z,44.23
2018-09-03T12:49:23.108Z,44.34
2018-09-03T12:50:23.074Z,43.95
2018-09-03T12:51:23.133Z,44.34
2018-09-03T12:52:23.021Z,44.05
2018-09-03T12:53:23.016Z,44.15
2018-09-03T12:54:22.974Z,43.76
2018-09-03T12:55:22.945Z,43.85
2018-09-03T12:56:22.912Z,43.57
2018-09-03T12:57:22.882Z,43.66